^^
Meteo Knjazevac Station Historical Data
Daily Summary for July 19, 2021 Units:  Metric    English   Both
Daily Weekly Monthly Yearly Custom
  High: Low: Average:
Temperature: -3.9 °C -5.3 °C -4.4 °C
Dew Point: -6.4 °C -7.6 °C -7.1 °C
Humidity: 85% 79% 82%
Wind Speed: 9.7km/h 0km/h 4km/h
Wind Gust: 16.1km/h - -
Wind- - SW
Pressure: 1025.6 hPa 1025.3 hPa -
Precipitation: 0 mm    
Historical Graphs
 
 
Tabular Data for July 19, 2021
Time Temperature Dew Point Pressure Wind Wind Speed Wind Gust Humidity Rainfall Rate (Hourly) solar Conditions
00:00 -3.9 °C -6.8 °C 1025.6 hPa WSW 9.7 km/h 14.5 km/h 80% 0 mm 0 W/m2
00:10 -3.9 °C -6.8 °C 1025.6 hPa WSW 8 km/h 12.9 km/h 80% 0 mm 0 W/m2
00:20 -3.9 °C -7 °C 1025.6 hPa SW 9.7 km/h 16.1 km/h 79% 0 mm 0 W/m2
00:30 -3.9 °C -7 °C 1025.6 hPa SW 8 km/h 16.1 km/h 79% 0 mm 0 W/m2
00:40 -3.9 °C -6.8 °C 1025.6 hPa SW 9.7 km/h 12.9 km/h 80% 0 mm 0 W/m2
00:50 -3.9 °C -6.8 °C 1025.6 hPa WSW 4.8 km/h 12.9 km/h 80% 0 mm 0 W/m2
01:00 -4 °C -6.9 °C 1025.6 hPa SW 4.8 km/h 11.3 km/h 80% 0 mm 0 W/m2
01:10 -4 °C -6.9 °C 1025.6 hPa SW 4.8 km/h 11.3 km/h 80% 0 mm 0 W/m2
01:20 -4 °C -6.9 °C 1025.6 hPa SW 4.8 km/h 11.3 km/h 80% 0 mm 0 W/m2
01:30 -4 °C -6.9 °C 1025.6 hPa SW 4.8 km/h 11.3 km/h 80% 0 mm 0 W/m2
01:40 -4 °C -7.1 °C 1025.6 hPa SW 8 km/h 16.1 km/h 79% 0 mm 0 W/m2
01:50 -3.9 °C -6.9 °C 1025.6 hPa WSW 4.8 km/h 11.3 km/h 80% 0 mm 0 W/m2
02:00 -4 °C -6.9 °C 1025.6 hPa WSW 4.8 km/h 11.3 km/h 80% 0 mm 0 W/m2
02:10 -3.9 °C -7 °C 1025.6 hPa WSW 9.7 km/h 12.9 km/h 79% 0 mm 0 W/m2
02:20 -3.9 °C -7 °C 1025.6 hPa WSW 8 km/h 16.1 km/h 79% 0 mm 0 W/m2
02:30 -4 °C -6.9 °C 1025.6 hPa WSW 9.7 km/h 14.5 km/h 80% 0 mm 0 W/m2
02:40 -4 °C -6.9 °C 1025.6 hPa WSW 4.8 km/h 12.9 km/h 80% 0 mm 0 W/m2
02:50 -4.1 °C -7.1 °C 1025.6 hPa WSW 4.8 km/h 9.7 km/h 80% 0 mm 0 W/m2
03:00 -4.2 °C -7.1 °C 1025.6 hPa WSW 4.8 km/h 9.7 km/h 80% 0 mm 0 W/m2
03:10 -4.3 °C -7.1 °C 1025.6 hPa WSW 4.8 km/h 9.7 km/h 81% 0 mm 0 W/m2
03:20 -4.3 °C -7.1 °C 1025.6 hPa SW 4.8 km/h 11.3 km/h 81% 0 mm 0 W/m2
03:30 -4.4 °C -7.2 °C 1025.6 hPa WSW 3.2 km/h 8 km/h 81% 0 mm 0 W/m2
03:40 -4.5 °C -7.3 °C 1025.6 hPa WSW 3.2 km/h 4.8 km/h 81% 0 mm 0 W/m2
03:50 -4.5 °C -7.3 °C 1025.6 hPa West 3.2 km/h 9.7 km/h 81% 0 mm 0 W/m2
04:00 -4.6 °C -7.4 °C 1025.3 hPa Calm   6.4 km/h 81% 0 mm 0 W/m2
04:10 -4.7 °C -7.2 °C 1025.3 hPa West 1.6 km/h 4.8 km/h 83% 0 mm 0 W/m2
04:20 -4.8 °C -7.2 °C 1025.3 hPa SW 1.6 km/h 6.4 km/h 83% 0 mm 0 W/m2
04:30 -4.8 °C -7.2 °C 1025.3 hPa Calm   9.7 km/h 83% 0 mm 0 W/m2
04:40 -5 °C -7.4 °C 1025.3 hPa West 3.2 km/h 4.8 km/h 83% 0 mm 0 W/m2
04:50 -5.2 °C -7.5 °C 1025.3 hPa West 3.2 km/h 4.8 km/h 84% 0 mm 0 W/m2
05:00 -5.3 °C -7.6 °C 1025.3 hPa WSW 1.6 km/h 4.8 km/h 84% 0 mm 0 W/m2
05:10 -5.3 °C -7.6 °C 1025.3 hPa Calm   3.2 km/h 84% 0 mm 0 W/m2
05:20 -5.2 °C -7.5 °C 1025.3 hPa Calm   3.2 km/h 84% 0 mm 0 W/m2
05:30 -5.1 °C -7.4 °C 1025.3 hPa Calm   3.2 km/h 84% 0 mm 0 W/m2
05:40 -5 °C -7.3 °C 1025.3 hPa SSE 1.6 km/h 4.8 km/h 84% 0 mm 0 W/m2
05:50 -4.8 °C -7.1 °C 1025.3 hPa SSE 3.2 km/h 9.7 km/h 84% 0 mm 0 W/m2
06:00 -4.8 °C -6.9 °C 1025.6 hPa SW 1.6 km/h 8 km/h 85% 0 mm 0 W/m2
06:10 -4.7 °C -6.8 °C 1025.6 hPa SW 3.2 km/h 6.4 km/h 85% 0 mm 0 W/m2
06:20 -4.7 °C -6.8 °C 1025.6 hPa SSW 1.6 km/h 8 km/h 85% 0 mm 0 W/m2
06:30 -4.5 °C -6.7 °C 1025.6 hPa SSE 3.2 km/h 8 km/h 85% 0 mm 0 W/m2
06:40 -4.4 °C -6.6 °C 1025.6 hPa South 1.6 km/h 6.4 km/h 85% 0 mm 0 W/m2
06:50 -4.4 °C -6.6 °C 1025.6 hPa Calm   4.8 km/h 85% 0 mm 0 W/m2
07:00 -4.3 °C -6.6 °C 1025.6 hPa SSW 1.6 km/h 11.3 km/h 84% 0 mm 1 W/m2
07:10 -4.3 °C -6.4 °C 1025.6 hPa South 1.6 km/h 8 km/h 85% 0 mm 4 W/m2
Knjazevac, Serbia
Compliments of Weather Underground - 2 mb